createdAt,value
2019-01-25T00:02:30.058Z,12.07
2019-01-25T00:05:04.523Z,10.98
2019-01-25T00:07:38.359Z,11.65
2019-01-25T00:10:12.171Z,9.98
2019-01-25T00:12:46.634Z,12.75
2019-01-25T00:15:20.411Z,10.00
2019-01-25T00:17:53.999Z,9.15
2019-01-25T00:20:27.621Z,11.32
2019-01-25T00:23:01.223Z,12.27
2019-01-25T00:25:34.941Z,11.32
2019-01-25T00:28:08.701Z,9.05
2019-01-25T00:30:43.070Z,11.68
2019-01-25T00:33:16.724Z,11.88
2019-01-25T00:35:50.508Z,12.27
2019-01-25T00:38:24.156Z,12.30
2019-01-25T00:40:59.044Z,9.85
2019-01-25T00:43:32.794Z,11.25
2019-01-25T00:46:07.161Z,9.90
2019-01-25T00:48:40.707Z,10.25
2019-01-25T00:51:15.068Z,14.02
2019-01-25T00:53:48.740Z,12.63
2019-01-25T00:56:22.307Z,12.13
2019-01-25T00:58:56.122Z,12.45
2019-01-25T01:01:29.635Z,12.80
2019-01-25T01:04:03.171Z,14.45
2019-01-25T01:06:37.693Z,12.65
2019-01-25T01:09:11.319Z,12.73
2019-01-25T01:11:45.733Z,15.00
2019-01-25T01:14:19.545Z,13.75
2019-01-25T01:16:53.164Z,13.90
2019-01-25T01:19:26.969Z,15.52
2019-01-25T01:22:00.721Z,13.35
2019-01-25T01:24:35.541Z,13.93
2019-01-25T01:27:10.109Z,12.13
2019-01-25T01:29:43.843Z,13.23
2019-01-25T01:32:17.444Z,16.37
2019-01-25T01:34:51.012Z,15.50
2019-01-25T01:37:24.692Z,13.52
2019-01-25T01:39:59.046Z,17.20
2019-01-25T01:42:32.739Z,13.13
2019-01-25T01:45:06.431Z,12.23
2019-01-25T01:47:40.732Z,16.55
2019-01-25T01:50:14.367Z,12.95
2019-01-25T01:52:48.128Z,13.10
2019-01-25T01:55:21.647Z,14.75
2019-01-25T01:57:55.475Z,12.52
2019-01-25T02:00:29.163Z,16.48
2019-01-25T02:03:02.771Z,13.00
2019-01-25T02:05:36.575Z,14.93
2019-01-25T02:08:10.181Z,17.23
2019-01-25T02:10:44.001Z,14.52
2019-01-25T02:13:17.632Z,13.62
2019-01-25T02:15:52.254Z,15.35
2019-01-25T02:18:25.956Z,15.93
2019-01-25T02:20:59.576Z,15.65
2019-01-25T02:23:33.337Z,15.15
2019-01-25T02:26:07.771Z,14.07
2019-01-25T02:28:42.379Z,16.08
2019-01-25T02:31:16.039Z,14.63
2019-01-25T02:33:49.584Z,17.73
2019-01-25T02:36:23.193Z,15.50
2019-01-25T02:38:56.747Z,15.52
2019-01-25T02:41:30.283Z,16.02
2019-01-25T02:44:04.066Z,14.48
2019-01-25T02:46:37.642Z,14.57
2019-01-25T02:49:11.258Z,16.40
2019-01-25T02:51:44.848Z,14.40
2019-01-25T02:54:19.162Z,14.27
2019-01-25T02:56:52.704Z,15.18
2019-01-25T02:59:26.389Z,16.35
2019-01-25T03:01:59.989Z,16.00
2019-01-25T03:04:33.605Z,14.07
2019-01-25T03:07:07.220Z,10.93
2019-01-25T03:09:40.977Z,13.10
2019-01-25T03:12:14.773Z,13.85
2019-01-25T03:14:48.408Z,13.48
2019-01-25T03:17:22.223Z,13.77
2019-01-25T03:19:55.797Z,14.85
2019-01-25T03:22:29.541Z,14.63
2019-01-25T03:25:03.198Z,12.27
2019-01-25T03:27:36.803Z,16.23
2019-01-25T03:30:10.435Z,13.88
2019-01-25T03:32:44.185Z,11.98
2019-01-25T03:35:17.826Z,13.62
2019-01-25T03:37:51.420Z,13.07
2019-01-25T03:40:25.324Z,13.57
2019-01-25T03:42:59.140Z,10.75
2019-01-25T03:45:32.701Z,13.70
2019-01-25T03:48:06.469Z,11.80
2019-01-25T03:50:40.036Z,13.23
2019-01-25T03:53:13.592Z,14.55
2019-01-25T03:55:47.326Z,11.98
2019-01-25T03:58:20.876Z,15.52
2019-01-25T04:00:54.623Z,13.75
2019-01-25T04:03:28.230Z,13.23
2019-01-25T04:06:01.771Z,12.10
2019-01-25T04:08:36.252Z,15.30
2019-01-25T04:11:10.009Z,13.68
2019-01-25T04:13:43.719Z,15.57
2019-01-25T04:16:17.332Z,12.88
2019-01-25T04:18:51.064Z,15.77
2019-01-25T04:21:25.460Z,15.55
2019-01-25T04:23:59.291Z,13.50
2019-01-25T04:26:33.006Z,12.30
2019-01-25T04:29:06.632Z,14.52
2019-01-25T04:31:40.371Z,12.75
2019-01-25T04:34:13.905Z,15.45
2019-01-25T04:36:47.744Z,12.30
2019-01-25T04:39:21.242Z,14.10
2019-01-25T04:41:54.873Z,16.55
2019-01-25T04:44:28.628Z,15.35
2019-01-25T04:47:02.319Z,15.68
2019-01-25T04:49:35.909Z,14.63
2019-01-25T04:52:11.012Z,15.13
2019-01-25T04:54:45.513Z,15.52
2019-01-25T04:57:19.280Z,12.13
2019-01-25T04:59:52.953Z,14.27
2019-01-25T05:02:26.539Z,14.75
2019-01-25T05:05:00.362Z,16.35
2019-01-25T05:07:33.891Z,14.00
2019-01-25T05:10:07.828Z,15.52
2019-01-25T05:12:41.592Z,15.07
2019-01-25T05:15:15.376Z,17.87
2019-01-25T05:17:51.119Z,16.20
2019-01-25T05:20:24.905Z,13.60
2019-01-25T05:22:58.499Z,15.38
2019-01-25T05:25:32.819Z,11.05
2019-01-25T05:28:07.264Z,16.50
2019-01-25T05:30:40.908Z,16.25
2019-01-25T05:33:14.686Z,13.60
2019-01-25T05:35:48.944Z,15.60
2019-01-25T05:38:22.820Z,15.35
2019-01-25T05:40:56.417Z,14.85
2019-01-25T05:43:29.995Z,13.00
2019-01-25T05:46:03.777Z,15.05
2019-01-25T05:48:37.511Z,14.15
2019-01-25T05:51:11.290Z,14.27
2019-01-25T05:53:46.667Z,14.85
2019-01-25T05:56:20.277Z,15.05
2019-01-25T05:58:53.952Z,16.60
2019-01-25T06:01:27.580Z,17.48
2019-01-25T06:04:01.189Z,17.17
2019-01-25T06:06:35.018Z,17.12
2019-01-25T06:09:08.827Z,14.93
2019-01-25T06:11:42.440Z,13.75
2019-01-25T06:14:16.207Z,13.25
2019-01-25T06:16:49.757Z,20.90
2019-01-25T06:19:23.786Z,18.42
2019-01-25T06:21:58.162Z,17.08
2019-01-25T06:24:31.774Z,14.55
2019-01-25T06:27:05.510Z,14.98
2019-01-25T06:29:39.199Z,12.88
2019-01-25T06:32:13.666Z,15.27
2019-01-25T06:34:48.238Z,17.80
2019-01-25T06:37:21.753Z,13.05
2019-01-25T06:39:55.832Z,13.05
2019-01-25T06:42:29.669Z,10.10
2019-01-25T06:45:03.300Z,13.62
2019-01-25T06:47:36.923Z,13.82
2019-01-25T06:50:11.407Z,15.45
2019-01-25T06:52:45.001Z,14.87
2019-01-25T06:55:18.636Z,11.73
2019-01-25T06:57:53.203Z,12.82
2019-01-25T07:00:40.820Z,11.80
2019-01-25T07:03:14.508Z,13.62
2019-01-25T07:05:48.092Z,12.18
2019-01-25T07:08:22.318Z,11.88
2019-01-25T07:10:56.225Z,14.38
2019-01-25T07:13:29.912Z,12.10
2019-01-25T07:16:03.791Z,13.40
2019-01-25T07:18:37.422Z,12.65
2019-01-25T07:21:11.011Z,13.23
2019-01-25T07:23:44.682Z,14.50
2019-01-25T07:26:18.539Z,10.73
2019-01-25T07:28:53.008Z,12.45
2019-01-25T07:31:27.372Z,14.52
2019-01-25T07:34:01.184Z,13.70
2019-01-25T07:36:34.707Z,11.50
2019-01-25T07:39:08.425Z,13.20
2019-01-25T07:41:42.191Z,12.35
2019-01-25T07:44:15.967Z,11.00
2019-01-25T07:46:49.579Z,9.38
2019-01-25T07:49:23.485Z,11.50
2019-01-25T07:51:57.085Z,12.45
2019-01-25T07:54:30.817Z,11.38
2019-01-25T07:57:05.559Z,10.88
2019-01-25T07:59:39.154Z,9.18
2019-01-25T08:02:12.749Z,16.42
2019-01-25T08:04:46.509Z,12.85
2019-01-25T08:07:20.143Z,15.40
2019-01-25T08:09:53.732Z,14.63
2019-01-25T08:12:27.415Z,10.23
2019-01-25T08:15:01.958Z,15.80
2019-01-25T08:17:36.273Z,11.55
2019-01-25T08:20:10.034Z,12.37
2019-01-25T08:22:44.649Z,11.95
2019-01-25T08:25:18.355Z,14.68
2019-01-25T08:27:52.295Z,15.20
2019-01-25T08:30:27.027Z,10.85
2019-01-25T08:33:00.768Z,14.30
2019-01-25T08:35:34.558Z,15.88
2019-01-25T08:38:08.484Z,10.93
2019-01-25T08:40:42.270Z,10.02
2019-01-25T08:43:15.910Z,12.73
2019-01-25T08:45:49.927Z,14.07
2019-01-25T08:48:23.583Z,16.20
2019-01-25T08:50:57.127Z,13.07
2019-01-25T08:53:30.832Z,13.45
2019-01-25T08:56:04.562Z,15.30
2019-01-25T08:58:38.402Z,11.00
2019-01-25T09:01:12.096Z,15.02
2019-01-25T09:03:45.812Z,14.75
2019-01-25T09:06:19.715Z,15.40
2019-01-25T09:08:56.572Z,14.45
2019-01-25T09:11:30.981Z,12.75
2019-01-25T09:14:04.736Z,14.48
2019-01-25T09:16:39.034Z,14.75
2019-01-25T09:19:12.804Z,13.80
2019-01-25T09:21:46.551Z,13.85
2019-01-25T09:24:20.354Z,16.90
2019-01-25T09:26:54.251Z,15.32
2019-01-25T09:29:28.009Z,13.30
2019-01-25T09:32:01.557Z,13.77
2019-01-25T09:34:35.256Z,14.82
2019-01-25T09:37:08.930Z,13.52
2019-01-25T09:39:45.076Z,13.60
2019-01-25T09:42:18.638Z,14.40
2019-01-25T09:44:52.946Z,16.30
2019-01-25T09:47:26.568Z,13.85
2019-01-25T09:50:00.391Z,15.30
2019-01-25T09:52:34.220Z,13.60
2019-01-25T09:55:12.299Z,15.05
2019-01-25T09:57:59.611Z,15.23
2019-01-25T10:00:53.482Z,14.85
2019-01-25T10:19:16.116Z,23.10
2019-01-25T10:21:49.707Z,16.70
2019-01-25T10:24:23.316Z,15.70
2019-01-25T10:26:56.865Z,14.98
2019-01-25T10:29:30.434Z,14.68
2019-01-25T10:32:05.064Z,12.57
2019-01-25T10:34:39.613Z,13.35
2019-01-25T10:37:13.415Z,13.90
2019-01-25T10:39:47.032Z,13.88
2019-01-25T10:42:20.609Z,14.27
2019-01-25T10:44:54.137Z,12.18
2019-01-25T10:47:28.543Z,13.20
2019-01-25T10:50:02.224Z,13.45
2019-01-25T10:52:36.065Z,11.68
2019-01-25T10:55:09.802Z,13.60
2019-01-25T10:57:43.427Z,13.65
2019-01-25T11:00:16.962Z,9.35
2019-01-25T11:02:57.644Z,10.23
2019-01-25T11:05:24.444Z,10.65
2019-01-25T11:08:02.748Z,12.35
2019-01-25T11:10:37.194Z,12.70
2019-01-25T11:13:10.963Z,12.13
2019-01-25T11:15:44.672Z,11.80
2019-01-25T11:18:18.230Z,10.75
2019-01-25T11:20:52.074Z,10.90
2019-01-25T11:23:26.335Z,9.98
2019-01-25T11:26:00.143Z,9.50
2019-01-25T11:28:33.784Z,10.45
2019-01-25T11:31:08.091Z,10.48
2019-01-25T11:33:41.869Z,10.70
2019-01-25T11:36:16.495Z,10.93
2019-01-25T11:38:50.159Z,11.10
2019-01-25T11:41:23.890Z,10.45
2019-01-25T11:43:57.536Z,11.12
2019-01-25T11:46:31.611Z,9.98
2019-01-25T11:49:05.259Z,9.65
2019-01-25T11:51:39.099Z,9.50
2019-01-25T11:54:12.625Z,10.80
2019-01-25T11:56:46.197Z,11.18
2019-01-25T11:59:20.616Z,10.55
2019-01-25T12:01:54.168Z,10.75
2019-01-25T12:04:27.702Z,9.40
2019-01-25T12:07:01.301Z,8.98
2019-01-25T12:09:35.109Z,9.32
2019-01-25T12:12:09.390Z,10.20
2019-01-25T12:14:43.228Z,9.15
2019-01-25T12:17:16.944Z,8.20
2019-01-25T12:19:50.748Z,9.00
2019-01-25T12:22:24.329Z,10.38
2019-01-25T12:24:58.063Z,10.73
2019-01-25T12:27:31.765Z,8.77
2019-01-25T12:30:13.038Z,8.93
2019-01-25T12:32:46.842Z,9.88
2019-01-25T12:35:21.209Z,9.32
2019-01-25T12:37:54.768Z,10.90
2019-01-25T12:40:28.424Z,9.32
2019-01-25T12:43:02.171Z,8.50
2019-01-25T12:45:35.855Z,8.93
2019-01-25T12:48:09.394Z,8.80
2019-01-25T12:50:42.972Z,9.45
2019-01-25T12:53:16.646Z,10.00
2019-01-25T12:55:50.522Z,8.80
2019-01-25T12:58:25.060Z,7.50
2019-01-25T13:00:58.826Z,7.40
2019-01-25T13:03:32.616Z,9.45
2019-01-25T13:06:06.397Z,14.73
2019-01-25T13:08:40.255Z,9.52
2019-01-25T13:11:13.872Z,7.62
2019-01-25T13:13:47.701Z,8.60
2019-01-25T13:16:21.411Z,7.93
2019-01-25T13:18:55.013Z,9.10
2019-01-25T13:21:28.597Z,7.90
2019-01-25T13:24:02.487Z,9.55
2019-01-25T13:26:36.324Z,9.43
2019-01-25T13:29:10.878Z,9.43
2019-01-25T13:31:44.642Z,9.90
2019-01-25T13:34:18.307Z,9.90
2019-01-25T13:36:57.013Z,11.50
2019-01-25T13:39:25.447Z,11.38
2019-01-25T13:41:59.303Z,11.18
2019-01-25T13:44:33.778Z,10.60
2019-01-25T13:47:07.623Z,11.18
2019-01-25T13:49:41.365Z,10.30
2019-01-25T13:52:15.257Z,11.85
2019-01-25T13:54:48.985Z,12.90
2019-01-25T13:57:22.767Z,13.07
2019-01-25T13:59:57.302Z,12.70
2019-01-25T14:02:30.967Z,12.18
2019-01-25T14:05:04.574Z,11.93
2019-01-25T14:07:39.798Z,12.37
2019-01-25T14:10:23.990Z,11.40
2019-01-25T14:12:58.520Z,11.32
2019-01-25T14:15:33.206Z,11.65
2019-01-25T14:18:13.492Z,14.10
2019-01-25T14:20:47.570Z,13.20
2019-01-25T14:23:21.265Z,12.37
2019-01-25T14:25:55.807Z,12.55
2019-01-25T14:28:29.684Z,12.05
2019-01-25T14:31:04.608Z,13.05
2019-01-25T14:33:38.219Z,12.57
2019-01-25T14:36:12.993Z,11.73
2019-01-25T14:38:47.409Z,10.25
2019-01-25T14:41:23.548Z,11.40
2019-01-25T14:43:57.290Z,12.57
2019-01-25T14:46:30.968Z,11.80
2019-01-25T14:49:04.686Z,10.80
2019-01-25T14:51:40.016Z,10.43
2019-01-25T14:54:13.832Z,12.32
2019-01-25T14:56:47.980Z,13.45
2019-01-25T14:59:21.643Z,10.93
2019-01-25T15:01:56.045Z,12.57
2019-01-25T15:04:29.835Z,10.80
2019-01-25T15:07:03.579Z,10.40
2019-01-25T15:09:38.084Z,10.82
2019-01-25T15:12:10.876Z,10.70
2019-01-25T15:14:44.406Z,9.95
2019-01-25T15:17:18.847Z,12.73
2019-01-25T15:19:52.581Z,8.60
2019-01-25T15:22:26.991Z,7.37
2019-01-25T15:25:00.616Z,7.80
2019-01-25T15:27:34.358Z,7.72
2019-01-25T15:30:09.991Z,4.70
2019-01-25T15:32:43.677Z,6.80
2019-01-25T15:35:17.498Z,7.28
2019-01-25T15:37:51.251Z,6.95
2019-01-25T15:40:24.897Z,6.60
2019-01-25T15:42:58.700Z,5.28
2019-01-25T15:45:32.371Z,4.15
2019-01-25T15:48:05.950Z,4.28
2019-01-25T15:50:40.448Z,6.65
2019-01-25T15:53:14.234Z,4.00
2019-01-25T15:55:47.845Z,5.78
2019-01-25T15:58:21.416Z,4.72
2019-01-25T16:00:55.118Z,4.97
2019-01-25T16:03:29.756Z,4.43
2019-01-25T16:06:03.381Z,5.90
2019-01-25T16:08:36.954Z,5.87
2019-01-25T16:11:10.890Z,5.70
2019-01-25T16:13:44.775Z,6.32
2019-01-25T16:16:19.153Z,5.60
2019-01-25T16:18:53.603Z,5.15
2019-01-25T16:21:27.391Z,5.03
2019-01-25T16:24:01.892Z,6.43
2019-01-25T16:26:35.575Z,6.35
2019-01-25T16:29:09.240Z,9.70
2019-01-25T16:31:43.659Z,4.15
2019-01-25T16:34:18.286Z,4.60
2019-01-25T16:36:51.976Z,5.50
2019-01-25T16:39:25.851Z,4.78
2019-01-25T16:41:59.622Z,6.45
2019-01-25T16:44:33.431Z,7.15
2019-01-25T16:47:07.243Z,9.13
2019-01-25T16:49:40.901Z,9.23
2019-01-25T16:52:15.427Z,9.38
2019-01-25T16:54:49.231Z,12.60
2019-01-25T16:57:22.840Z,10.68
2019-01-25T16:59:56.450Z,9.98
2019-01-25T17:02:30.148Z,10.48
2019-01-25T17:05:03.761Z,11.70
2019-01-25T17:07:37.603Z,15.90
2019-01-25T17:10:11.287Z,11.63
2019-01-25T17:12:44.887Z,8.30
2019-01-25T17:15:18.640Z,9.90
2019-01-25T17:17:52.477Z,10.00
2019-01-25T17:20:26.037Z,10.00
2019-01-25T17:22:59.580Z,9.43
2019-01-25T17:25:33.291Z,11.82
2019-01-25T17:28:07.681Z,8.23
2019-01-25T17:30:42.930Z,8.63
2019-01-25T17:33:15.627Z,9.35
2019-01-25T17:35:49.371Z,9.82
2019-01-25T17:38:23.208Z,9.13
2019-01-25T17:40:57.581Z,9.25
2019-01-25T17:43:31.124Z,7.40
2019-01-25T17:46:04.835Z,8.95
2019-01-25T17:48:39.358Z,10.02
2019-01-25T17:51:13.114Z,8.88
2019-01-25T17:53:46.758Z,8.68
2019-01-25T17:56:26.395Z,8.43
2019-01-25T17:59:00.090Z,8.70
2019-01-25T18:01:33.590Z,8.77
2019-01-25T18:04:07.203Z,8.40
2019-01-25T18:06:40.951Z,9.98
2019-01-25T18:09:14.711Z,10.68
2019-01-25T18:11:48.302Z,8.48
2019-01-25T18:14:22.027Z,10.40
2019-01-25T18:16:56.319Z,9.43
2019-01-25T18:19:29.889Z,8.85
2019-01-25T18:22:04.403Z,7.70
2019-01-25T18:24:38.097Z,9.45
2019-01-25T18:27:11.901Z,7.43
2019-01-25T18:29:45.651Z,7.32
2019-01-25T18:32:19.511Z,6.62
2019-01-25T18:34:53.313Z,7.78
2019-01-25T18:37:27.791Z,6.20
2019-01-25T18:40:01.536Z,7.00
2019-01-25T18:42:35.103Z,6.03
2019-01-25T18:45:08.816Z,7.07
2019-01-25T18:47:43.023Z,5.18
2019-01-25T18:50:16.711Z,6.28
2019-01-25T18:52:50.444Z,6.70
2019-01-25T18:55:23.947Z,5.43
2019-01-25T18:57:57.631Z,6.12
2019-01-25T19:00:31.440Z,7.43
2019-01-25T19:03:04.993Z,6.68
2019-01-25T19:05:38.790Z,6.30
2019-01-25T19:08:12.459Z,5.78
2019-01-25T19:10:46.204Z,4.68
2019-01-25T19:13:19.888Z,5.47
2019-01-25T19:15:53.463Z,6.45
2019-01-25T19:18:27.064Z,5.30
2019-01-25T19:21:00.856Z,5.78
2019-01-25T19:23:35.615Z,9.13
2019-01-25T19:26:09.330Z,4.32
2019-01-25T19:28:43.027Z,5.00
2019-01-25T19:31:16.746Z,5.90
2019-01-25T19:33:51.346Z,5.32
2019-01-25T19:36:25.012Z,5.07
2019-01-25T19:38:58.567Z,7.47
2019-01-25T19:41:32.136Z,5.68
2019-01-25T19:44:05.743Z,5.90
2019-01-25T19:46:39.363Z,4.78
2019-01-25T19:49:13.281Z,6.78
2019-01-25T19:51:46.841Z,5.93
2019-01-25T19:54:20.525Z,4.72
2019-01-25T19:56:54.051Z,5.62
2019-01-25T19:59:27.677Z,5.53
2019-01-25T20:02:01.459Z,6.03
2019-01-25T20:04:35.139Z,4.82
2019-01-25T20:07:08.867Z,6.07
2019-01-25T20:09:42.547Z,6.95
2019-01-25T20:12:16.163Z,5.12
2019-01-25T20:14:49.756Z,5.43
2019-01-25T20:17:23.579Z,6.55
2019-01-25T20:19:57.154Z,6.10
2019-01-25T20:22:30.907Z,4.85
2019-01-25T20:25:04.485Z,7.20
2019-01-25T20:27:39.365Z,4.50
2019-01-25T20:30:14.735Z,5.22
2019-01-25T20:32:49.064Z,5.50
2019-01-25T20:35:24.442Z,4.20
2019-01-25T20:37:58.187Z,5.18
2019-01-25T20:40:31.840Z,5.53
2019-01-25T20:43:05.386Z,4.70
2019-01-25T20:45:39.036Z,5.10
2019-01-25T20:48:12.611Z,5.50
2019-01-25T20:50:46.311Z,4.28
2019-01-25T20:53:19.925Z,4.37
2019-01-25T20:55:53.466Z,6.72
2019-01-25T20:58:28.046Z,4.45
2019-01-25T21:01:01.771Z,4.55
2019-01-25T21:03:35.435Z,5.10
2019-01-25T21:06:09.147Z,4.90
2019-01-25T21:08:42.780Z,5.20
2019-01-25T21:11:16.304Z,4.22
2019-01-25T21:13:49.901Z,4.55
2019-01-25T21:16:24.565Z,4.47
2019-01-25T21:18:58.268Z,5.20
2019-01-25T21:21:31.836Z,4.55
2019-01-25T21:24:05.442Z,4.20
2019-01-25T21:26:39.821Z,5.93
2019-01-25T21:29:13.559Z,3.90
2019-01-25T21:31:47.177Z,3.92
2019-01-25T21:34:20.921Z,3.25
2019-01-25T21:36:54.514Z,4.60
2019-01-25T21:39:28.067Z,4.87
2019-01-25T21:42:01.934Z,3.83
2019-01-25T21:44:35.666Z,3.62
2019-01-25T21:47:09.489Z,4.12
2019-01-25T21:49:43.019Z,5.72
2019-01-25T21:52:16.639Z,4.60
2019-01-25T21:54:50.393Z,3.75
2019-01-25T21:57:23.950Z,3.92
2019-01-25T21:59:57.811Z,3.83
2019-01-25T22:02:31.398Z,4.45
2019-01-25T22:05:05.106Z,3.90
2019-01-25T22:07:38.651Z,4.50
2019-01-25T22:10:28.811Z,4.50
2019-01-25T22:13:02.506Z,3.90
2019-01-25T22:15:36.128Z,3.97
2019-01-25T22:18:09.683Z,4.75
2019-01-25T22:20:43.346Z,3.80
2019-01-25T22:23:17.113Z,3.90
2019-01-25T22:25:50.455Z,3.55
2019-01-25T22:28:24.171Z,3.75
2019-01-25T22:30:57.695Z,4.72
2019-01-25T22:33:31.453Z,3.80
2019-01-25T22:36:05.044Z,4.07
2019-01-25T22:38:39.495Z,5.43
2019-01-25T22:41:13.839Z,3.20
2019-01-25T22:43:47.554Z,5.53
2019-01-25T22:46:21.169Z,4.12
2019-01-25T22:48:54.860Z,4.10
2019-01-25T22:51:28.442Z,5.20
2019-01-25T22:54:02.024Z,3.55
2019-01-25T22:56:36.104Z,4.10
2019-01-25T22:59:09.862Z,4.25
2019-01-25T23:01:44.347Z,4.37
2019-01-25T23:04:22.623Z,7.00
2019-01-25T23:06:56.452Z,5.43
2019-01-25T23:09:30.040Z,5.22
2019-01-25T23:12:03.821Z,4.10
2019-01-25T23:14:38.335Z,3.90
2019-01-25T23:17:12.004Z,4.12
2019-01-25T23:19:45.726Z,4.60
2019-01-25T23:22:20.024Z,4.60
2019-01-25T23:24:53.629Z,5.57
2019-01-25T23:27:28.077Z,3.72
2019-01-25T23:30:01.887Z,2.65
2019-01-25T23:32:35.851Z,2.33
2019-01-25T23:35:09.558Z,5.07
2019-01-25T23:37:43.193Z,5.15
2019-01-25T23:40:17.633Z,3.17
2019-01-25T23:42:51.350Z,5.18
2019-01-25T23:45:24.959Z,4.62
2019-01-25T23:47:58.715Z,4.03
2019-01-25T23:50:32.451Z,3.70
2019-01-25T23:53:05.996Z,5.62
2019-01-25T23:55:39.621Z,3.90
2019-01-25T23:58:13.103Z,4.05
